createdAt,value
2022-10-19T00:00:02.496Z,6.47
2022-10-19T00:02:31.996Z,6.85
2022-10-19T00:04:58.956Z,7.78
2022-10-19T00:07:25.914Z,7.30
2022-10-19T00:09:52.892Z,7.97
2022-10-19T00:12:19.846Z,7.75
2022-10-19T00:14:46.852Z,8.48
2022-10-19T00:17:13.811Z,8.00
2022-10-19T00:19:40.701Z,7.93
2022-10-19T00:22:10.312Z,7.20
2022-10-19T00:24:40.071Z,7.05
2022-10-19T00:27:06.997Z,7.28
2022-10-19T00:29:34.123Z,8.32
2022-10-19T00:32:01.014Z,8.40
2022-10-19T00:34:27.999Z,7.18
2022-10-19T00:36:54.957Z,7.80
2022-10-19T00:39:21.921Z,8.55
2022-10-19T00:41:49.456Z,8.82
2022-10-19T00:44:16.373Z,9.43
2022-10-19T00:46:45.424Z,9.13
2022-10-19T00:49:15.808Z,8.35
2022-10-19T00:51:46.578Z,7.82
2022-10-19T00:54:15.552Z,8.10
2022-10-19T00:56:44.905Z,7.78
2022-10-19T00:59:15.136Z,8.68
2022-10-19T01:01:44.270Z,9.10
2022-10-19T01:04:12.318Z,9.32
2022-10-19T01:06:40.780Z,9.77
2022-10-19T01:09:08.439Z,9.27
2022-10-19T01:11:54.973Z,9.02
2022-10-19T01:14:40.924Z,8.45
2022-10-19T01:17:31.208Z,8.68
2022-10-19T01:20:29.291Z,7.78
2022-10-19T01:23:04.986Z,8.27
2022-10-19T01:25:46.907Z,8.70
2022-10-19T01:28:31.733Z,9.32
2022-10-19T01:31:33.415Z,7.80
2022-10-19T01:34:38.666Z,9.50
2022-10-19T01:37:20.566Z,8.85
2022-10-19T01:39:53.398Z,8.68
2022-10-19T01:42:30.542Z,8.90
2022-10-19T01:45:12.584Z,8.05
2022-10-19T01:47:46.251Z,9.45
2022-10-19T01:50:18.944Z,10.18
2022-10-19T01:52:48.248Z,9.95
2022-10-19T01:55:18.220Z,10.27
2022-10-19T01:57:55.146Z,12.27
2022-10-19T02:00:23.826Z,13.77
2022-10-19T02:02:54.728Z,12.25
2022-10-19T02:05:27.070Z,13.05
2022-10-19T02:07:59.560Z,14.50
2022-10-19T02:10:27.952Z,15.52
2022-10-19T02:12:55.616Z,14.82
2022-10-19T02:15:25.804Z,15.63
2022-10-19T02:17:57.387Z,14.60
2022-10-19T02:20:24.426Z,15.35
2022-10-19T02:22:51.393Z,15.25
2022-10-19T02:25:18.808Z,15.48
2022-10-19T02:27:45.862Z,15.52
2022-10-19T02:30:16.457Z,15.63
2022-10-19T02:32:44.330Z,14.98
2022-10-19T02:35:13.984Z,15.38
2022-10-19T02:37:41.740Z,14.35
2022-10-19T02:40:09.756Z,14.80
2022-10-19T02:42:55.508Z,15.15
2022-10-19T02:45:24.282Z,15.18
2022-10-19T02:48:04.892Z,15.43
2022-10-19T02:50:32.241Z,15.65
2022-10-19T02:52:59.658Z,15.80
2022-10-19T02:55:27.007Z,16.70
2022-10-19T02:57:54.740Z,15.77
2022-10-19T03:00:21.738Z,15.85
2022-10-19T03:02:48.667Z,15.93
2022-10-19T03:05:15.726Z,17.38
2022-10-19T03:07:43.393Z,16.30
2022-10-19T03:10:10.361Z,16.15
2022-10-19T03:12:37.248Z,17.92
2022-10-19T03:15:05.043Z,16.90
2022-10-19T03:17:32.378Z,17.98
2022-10-19T03:19:59.590Z,18.25
2022-10-19T03:22:26.530Z,18.70
2022-10-19T03:24:53.567Z,18.15
2022-10-19T03:27:20.450Z,18.63
2022-10-19T03:29:47.467Z,17.08
2022-10-19T03:32:14.393Z,18.85
2022-10-19T03:34:41.329Z,19.67
2022-10-19T03:37:08.709Z,18.30
2022-10-19T03:39:35.925Z,20.27
2022-10-19T03:42:02.810Z,19.67
2022-10-19T03:44:29.824Z,20.58
2022-10-19T03:46:56.832Z,19.25
2022-10-19T03:49:23.832Z,20.58
2022-10-19T03:51:50.760Z,21.10
2022-10-19T03:54:17.998Z,21.38
2022-10-19T03:56:45.116Z,21.08
2022-10-19T03:59:14.914Z,20.50
2022-10-19T04:01:44.888Z,20.67
2022-10-19T04:04:17.576Z,20.95
2022-10-19T04:06:47.380Z,21.77
2022-10-19T04:09:17.664Z,21.00
2022-10-19T04:11:44.825Z,21.13
2022-10-19T04:14:26.666Z,21.10
2022-10-19T04:17:03.088Z,21.23
2022-10-19T04:19:30.691Z,22.02
2022-10-19T04:21:57.850Z,21.05
2022-10-19T04:24:24.812Z,21.55
2022-10-19T04:26:54.101Z,20.48
2022-10-19T04:29:26.495Z,21.13
2022-10-19T04:31:56.684Z,22.35
2022-10-19T04:34:24.209Z,22.17
2022-10-19T04:36:51.155Z,22.60
2022-10-19T04:39:18.144Z,23.35
2022-10-19T04:41:45.084Z,25.60
2022-10-19T04:44:12.072Z,24.10
2022-10-19T04:46:39.147Z,24.10
2022-10-19T04:49:06.960Z,23.42
2022-10-19T04:51:34.729Z,23.92
2022-10-19T04:54:03.718Z,24.95
2022-10-19T04:56:32.371Z,25.05
2022-10-19T04:59:00.340Z,24.92
2022-10-19T05:01:29.602Z,25.63
2022-10-19T05:04:01.171Z,24.95
2022-10-19T05:06:29.037Z,25.27
2022-10-19T05:08:56.397Z,25.42
2022-10-19T05:11:23.479Z,26.42
2022-10-19T05:13:50.795Z,25.95
2022-10-19T05:16:20.513Z,27.55
2022-10-19T05:18:52.586Z,27.58
2022-10-19T05:21:20.939Z,25.25
2022-10-19T05:23:50.738Z,25.95
2022-10-19T05:26:19.549Z,26.55
2022-10-19T05:28:51.409Z,25.92
2022-10-19T05:31:20.247Z,27.10
2022-10-19T05:33:47.528Z,24.55
2022-10-19T05:36:27.106Z,26.33
2022-10-19T05:38:58.251Z,24.70
2022-10-19T05:41:26.729Z,24.98
2022-10-19T05:43:57.987Z,25.67
2022-10-19T05:46:26.224Z,24.77
2022-10-19T05:48:53.296Z,25.48
2022-10-19T05:51:21.629Z,26.38
2022-10-19T05:53:48.631Z,25.98
2022-10-19T05:56:18.457Z,25.73
2022-10-19T05:58:45.601Z,25.55
2022-10-19T06:01:14.017Z,27.00
2022-10-19T06:03:41.677Z,27.63
2022-10-19T06:06:10.033Z,26.85
2022-10-19T06:08:38.459Z,26.00
2022-10-19T06:11:16.286Z,27.13
2022-10-19T06:13:45.387Z,26.90
2022-10-19T06:16:14.607Z,27.52
2022-10-19T06:18:42.905Z,25.45
2022-10-19T06:21:15.749Z,26.90
2022-10-19T06:26:15.315Z,25.08
2022-10-19T06:28:43.633Z,27.10
2022-10-19T06:31:12.537Z,26.60
2022-10-19T06:33:40.975Z,25.85
2022-10-19T06:36:08.899Z,25.00
2022-10-19T06:38:35.851Z,26.80
2022-10-19T06:41:03.404Z,26.50
2022-10-19T06:43:30.496Z,26.63
2022-10-19T06:45:57.889Z,27.30
2022-10-19T06:48:24.925Z,26.33
2022-10-19T06:50:59.244Z,25.23
2022-10-19T06:53:27.219Z,27.00
2022-10-19T06:55:54.142Z,26.15
2022-10-19T06:58:21.129Z,25.83
2022-10-19T07:00:58.046Z,26.48
2022-10-19T07:03:29.804Z,26.33
2022-10-19T07:05:59.403Z,25.92
2022-10-19T07:08:28.143Z,25.92
2022-10-19T07:10:57.689Z,25.85
2022-10-19T07:13:25.430Z,28.17
2022-10-19T07:16:06.707Z,26.92
2022-10-19T07:18:38.264Z,27.15
2022-10-19T07:21:08.415Z,28.17
2022-10-19T07:23:37.087Z,28.00
2022-10-19T07:26:21.563Z,26.58
2022-10-19T07:28:49.443Z,26.67
2022-10-19T07:31:20.203Z,27.80
2022-10-19T07:33:51.359Z,28.13
2022-10-19T07:36:18.306Z,27.63
2022-10-19T07:38:45.203Z,28.15
2022-10-19T07:41:18.440Z,28.73
2022-10-19T07:43:47.176Z,28.45
2022-10-19T07:46:20.232Z,28.65
2022-10-19T07:48:47.573Z,29.83
2022-10-19T07:51:16.276Z,30.10
2022-10-19T07:53:43.601Z,30.90
2022-10-19T07:56:16.604Z,30.10
2022-10-19T07:58:44.430Z,30.57
2022-10-19T08:01:14.929Z,32.70
2022-10-19T08:04:42.831Z,30.83
2022-10-19T08:06:29.979Z,32.75
2022-10-19T08:08:57.053Z,32.00
2022-10-19T08:11:28.419Z,31.80
2022-10-19T08:13:58.634Z,33.03
2022-10-19T08:16:29.160Z,31.95
2022-10-19T08:18:58.628Z,32.58
2022-10-19T08:21:26.969Z,32.10
2022-10-19T08:23:53.973Z,33.50
2022-10-19T08:26:21.275Z,33.05
2022-10-19T08:28:48.386Z,33.85
2022-10-19T08:31:22.991Z,33.15
2022-10-19T08:33:51.034Z,34.10
2022-10-19T08:36:19.743Z,33.55
2022-10-19T08:38:48.540Z,34.10
2022-10-19T08:41:52.256Z,34.83
2022-10-19T08:44:49.850Z,34.00
2022-10-19T08:47:28.537Z,35.97
2022-10-19T08:49:57.122Z,35.50
2022-10-19T08:52:35.928Z,34.47
2022-10-19T08:55:13.911Z,35.35
2022-10-19T08:57:52.426Z,35.92
2022-10-19T09:00:26.582Z,35.80
2022-10-19T09:03:37.788Z,34.17
2022-10-19T09:06:22.608Z,36.63
2022-10-19T09:08:54.786Z,38.28
2022-10-19T09:11:45.332Z,37.33
2022-10-19T09:14:25.841Z,36.67
2022-10-19T09:16:54.617Z,36.65
2022-10-19T09:19:29.402Z,35.63
2022-10-19T09:22:18.336Z,38.08
2022-10-19T09:24:53.844Z,35.90
2022-10-19T09:27:33.454Z,37.17
2022-10-19T09:30:06.715Z,37.42
2022-10-19T09:32:39.592Z,36.63
2022-10-19T09:35:22.225Z,37.58
2022-10-19T09:37:51.233Z,35.50
2022-10-19T09:40:27.616Z,35.95
2022-10-19T09:42:58.551Z,35.45
2022-10-19T09:46:18.590Z,34.70
2022-10-19T09:48:52.036Z,35.97
2022-10-19T09:51:20.513Z,35.22
2022-10-19T09:53:47.353Z,34.72
2022-10-19T09:56:23.648Z,35.47
2022-10-19T09:58:53.599Z,33.40
2022-10-19T10:01:41.681Z,31.58
2022-10-19T10:04:19.065Z,33.17
2022-10-19T10:06:48.489Z,32.20
2022-10-19T10:09:26.215Z,31.95
2022-10-19T10:11:57.210Z,31.85
2022-10-19T10:14:51.938Z,33.38
2022-10-19T10:17:22.069Z,31.25
2022-10-19T10:19:58.174Z,33.05
2022-10-19T10:22:28.288Z,33.25
2022-10-19T10:24:56.710Z,32.10
2022-10-19T10:27:36.523Z,31.85
2022-10-19T10:30:09.558Z,30.85
2022-10-19T10:32:40.671Z,31.60
2022-10-19T10:35:18.572Z,30.08
2022-10-19T10:37:47.374Z,30.08
2022-10-19T10:40:25.109Z,31.77
2022-10-19T10:42:54.999Z,31.10
2022-10-19T10:45:41.705Z,29.92
2022-10-19T10:48:36.004Z,30.65
2022-10-19T10:51:07.236Z,29.92
2022-10-19T10:53:38.157Z,31.30
2022-10-19T10:56:19.220Z,30.05
2022-10-19T10:59:03.024Z,30.02
2022-10-19T11:02:10.524Z,30.55
2022-10-19T11:04:41.576Z,30.50
2022-10-19T11:07:24.555Z,29.60
2022-10-19T11:09:56.809Z,30.33
2022-10-19T11:12:53.887Z,29.85
2022-10-19T11:15:34.774Z,28.73
2022-10-19T11:18:20.430Z,28.00
2022-10-19T11:20:59.581Z,30.48
2022-10-19T11:23:36.978Z,29.35
2022-10-19T11:26:15.429Z,30.00
2022-10-19T11:28:54.343Z,29.10
2022-10-19T11:31:32.436Z,29.92
2022-10-19T11:34:26.391Z,27.20
2022-10-19T11:37:02.837Z,29.00
2022-10-19T11:40:11.528Z,29.13
2022-10-19T11:42:57.146Z,27.83
2022-10-19T11:45:59.859Z,26.65
2022-10-19T11:48:29.863Z,27.17
2022-10-19T11:51:21.401Z,25.45
2022-10-19T11:53:56.684Z,25.42
2022-10-19T11:56:44.698Z,24.63
2022-10-19T11:59:48.524Z,24.83
2022-10-19T12:02:48.552Z,23.75
2022-10-19T12:05:46.731Z,21.98
2022-10-19T12:08:26.745Z,24.00
2022-10-19T12:11:00.287Z,22.25
2022-10-19T12:13:39.684Z,22.15
2022-10-19T12:16:08.374Z,23.33
2022-10-19T12:18:55.610Z,20.30
2022-10-19T12:21:31.167Z,20.05
2022-10-19T12:24:00.572Z,19.98
2022-10-19T12:26:35.497Z,19.40
2022-10-19T12:29:06.994Z,18.45
2022-10-19T12:31:35.805Z,19.55
2022-10-19T12:34:25.818Z,19.42
2022-10-19T12:36:55.555Z,20.02
2022-10-19T12:39:42.279Z,18.00
2022-10-19T12:42:35.912Z,17.90
2022-10-19T12:45:09.319Z,17.30
2022-10-19T12:47:36.708Z,18.30
2022-10-19T12:50:04.241Z,17.20
2022-10-19T12:52:48.244Z,18.63
2022-10-19T12:55:15.157Z,17.65
2022-10-19T12:57:48.384Z,16.17
2022-10-19T13:00:27.032Z,15.43
2022-10-19T13:03:22.143Z,13.40
2022-10-19T13:06:30.251Z,14.38
2022-10-19T13:09:06.671Z,13.88
2022-10-19T13:14:45.385Z,12.45
2022-10-19T13:17:36.139Z,11.82
2022-10-19T13:20:15.401Z,11.63
2022-10-19T13:22:45.085Z,11.43
2022-10-19T13:25:24.051Z,11.07
2022-10-19T13:28:15.142Z,10.88
2022-10-19T13:30:42.317Z,10.48
2022-10-19T13:33:31.501Z,11.00
2022-10-19T13:36:02.472Z,10.90
2022-10-19T13:38:44.494Z,10.40
2022-10-19T13:41:11.427Z,10.43
2022-10-19T13:43:44.134Z,11.55
2022-10-19T13:46:26.437Z,10.82
2022-10-19T13:49:15.282Z,12.05
2022-10-19T13:51:55.546Z,10.98
2022-10-19T13:54:37.812Z,11.73
2022-10-19T13:57:25.872Z,12.15
2022-10-19T14:00:02.119Z,10.52
2022-10-19T14:03:11.689Z,10.45
2022-10-19T14:06:13.330Z,11.63
2022-10-19T14:08:46.893Z,11.70
2022-10-19T14:11:20.535Z,10.57
2022-10-19T14:14:27.227Z,10.57
2022-10-19T14:17:04.184Z,10.77
2022-10-19T14:19:42.175Z,11.52
2022-10-19T14:22:38.376Z,10.45
2022-10-19T14:25:18.523Z,11.15
2022-10-19T14:28:00.871Z,11.18
2022-10-19T14:30:33.811Z,10.27
2022-10-19T14:33:06.817Z,9.40
2022-10-19T14:35:37.523Z,9.67
2022-10-19T14:38:15.754Z,9.35
2022-10-19T14:40:42.891Z,9.60
2022-10-19T14:43:27.581Z,9.60
2022-10-19T14:46:06.773Z,9.85
2022-10-19T14:48:35.728Z,9.70
2022-10-19T14:51:10.058Z,9.52
2022-10-19T14:53:40.218Z,9.60
2022-10-19T14:56:17.839Z,9.07
2022-10-19T14:58:51.786Z,9.00
2022-10-19T15:01:20.289Z,8.32
2022-10-19T15:03:48.749Z,8.55
2022-10-19T15:06:28.331Z,8.82
2022-10-19T15:09:05.402Z,8.77
2022-10-19T15:11:44.503Z,8.55
2022-10-19T15:14:24.524Z,8.82
2022-10-19T15:16:58.435Z,8.57
2022-10-19T15:19:30.197Z,8.20
2022-10-19T15:22:32.369Z,8.20
2022-10-19T15:25:06.952Z,8.65
2022-10-19T15:27:47.221Z,7.95
2022-10-19T15:30:26.300Z,8.60
2022-10-19T15:33:02.131Z,7.05
2022-10-19T15:35:32.204Z,7.60
2022-10-19T15:38:22.395Z,7.60
2022-10-19T15:40:55.927Z,7.43
2022-10-19T15:43:33.084Z,8.25
2022-10-19T15:46:18.880Z,8.40
2022-10-19T15:48:51.183Z,8.85
2022-10-19T15:51:23.731Z,7.82
2022-10-19T15:54:00.965Z,8.10
2022-10-19T15:56:30.042Z,8.27
2022-10-19T15:58:58.955Z,8.68
2022-10-19T16:01:28.593Z,8.32
2022-10-19T16:03:55.960Z,8.52
2022-10-19T16:06:26.402Z,9.05
2022-10-19T16:08:54.190Z,8.50
2022-10-19T16:11:23.140Z,9.60
2022-10-19T16:13:50.399Z,8.40
2022-10-19T16:16:28.643Z,9.25
2022-10-19T16:18:56.083Z,8.05
2022-10-19T16:21:32.530Z,7.53
2022-10-19T16:23:59.560Z,8.15
2022-10-19T16:26:27.331Z,7.57
2022-10-19T16:28:55.734Z,7.45
2022-10-19T16:31:24.335Z,7.38
2022-10-19T16:33:51.643Z,8.20
2022-10-19T16:36:20.378Z,8.00
2022-10-19T16:38:48.145Z,8.60
2022-10-19T16:41:15.510Z,8.25
2022-10-19T16:43:42.606Z,7.88
2022-10-19T16:46:09.689Z,8.13
2022-10-19T16:48:37.015Z,7.60
2022-10-19T16:51:07.051Z,8.07
2022-10-19T16:53:35.207Z,8.10
2022-10-19T16:56:07.417Z,7.55
2022-10-19T16:58:35.130Z,7.82
2022-10-19T17:01:10.657Z,8.35
2022-10-19T17:03:38.243Z,7.82
2022-10-19T17:06:06.649Z,7.70
2022-10-19T17:09:14.303Z,7.82
2022-10-19T17:11:36.714Z,8.13
2022-10-19T17:14:06.864Z,7.68
2022-10-19T17:16:35.479Z,7.65
2022-10-19T17:19:03.945Z,7.97
2022-10-19T17:21:33.592Z,7.65
2022-10-19T17:24:02.906Z,6.95
2022-10-19T17:26:38.540Z,7.55
2022-10-19T17:29:06.639Z,6.97
2022-10-19T17:31:34.531Z,7.88
2022-10-19T17:34:02.064Z,8.18
2022-10-19T17:36:32.034Z,7.68
2022-10-19T17:39:02.347Z,8.10
2022-10-19T17:41:29.690Z,8.07
2022-10-19T17:43:57.291Z,8.20
2022-10-19T17:46:30.127Z,8.60
2022-10-19T17:48:57.877Z,9.18
2022-10-19T17:51:29.678Z,9.80
2022-10-19T17:53:59.590Z,9.63
2022-10-19T17:56:27.866Z,10.00
2022-10-19T17:58:56.392Z,8.63
2022-10-19T18:01:24.430Z,8.88
2022-10-19T18:03:51.333Z,8.30
2022-10-19T18:06:22.130Z,8.60
2022-10-19T18:08:54.165Z,9.68
2022-10-19T18:11:26.868Z,8.77
2022-10-19T18:13:56.988Z,8.75
2022-10-19T18:16:27.466Z,9.10
2022-10-19T18:18:57.084Z,9.20
2022-10-19T18:21:31.086Z,9.32
2022-10-19T18:24:00.583Z,9.20
2022-10-19T18:26:30.351Z,8.90
2022-10-19T18:28:58.270Z,8.98
2022-10-19T18:31:29.499Z,8.85
2022-10-19T18:34:04.982Z,9.15
2022-10-19T18:36:32.946Z,9.52
2022-10-19T18:39:02.258Z,9.18
2022-10-19T18:41:30.236Z,8.70
2022-10-19T18:44:03.222Z,9.65
2022-10-19T18:46:30.597Z,10.07
2022-10-19T18:48:57.507Z,10.43
2022-10-19T18:51:24.525Z,9.13
2022-10-19T18:53:51.563Z,9.23
2022-10-19T18:56:20.206Z,9.73
2022-10-19T18:58:47.501Z,9.52
2022-10-19T19:01:24.082Z,9.32
2022-10-19T19:03:52.840Z,9.77
2022-10-19T19:06:24.735Z,9.35
2022-10-19T19:08:54.797Z,9.20
2022-10-19T19:11:26.745Z,9.10
2022-10-19T19:13:56.524Z,9.77
2022-10-19T19:16:24.387Z,8.88
2022-10-19T19:18:51.621Z,9.07
2022-10-19T19:21:21.721Z,8.98
2022-10-19T19:23:49.923Z,9.30
2022-10-19T19:26:17.870Z,9.15
2022-10-19T19:28:47.629Z,9.32
2022-10-19T19:31:18.629Z,9.35
2022-10-19T19:33:47.081Z,9.38
2022-10-19T19:36:17.138Z,9.18
2022-10-19T19:38:44.834Z,10.27
2022-10-19T19:41:14.139Z,9.10
2022-10-19T19:43:42.675Z,8.80
2022-10-19T19:46:15.297Z,8.70
2022-10-19T19:48:44.160Z,9.02
2022-10-19T19:51:14.190Z,8.65
2022-10-19T19:53:41.240Z,9.25
2022-10-19T19:56:09.969Z,9.02
2022-10-19T19:58:37.015Z,8.77
2022-10-19T20:01:18.394Z,8.75
2022-10-19T20:03:46.397Z,8.75
2022-10-19T20:06:15.431Z,8.48
2022-10-19T20:08:42.875Z,8.25
2022-10-19T20:11:13.814Z,9.60
2022-10-19T20:13:40.810Z,10.35
2022-10-19T20:16:13.265Z,10.55
2022-10-19T20:18:44.040Z,9.50
2022-10-19T20:21:11.214Z,9.45
2022-10-19T20:23:38.692Z,10.23
2022-10-19T20:26:05.970Z,9.13
2022-10-19T20:28:33.340Z,9.60
2022-10-19T20:31:05.491Z,10.23
2022-10-19T20:33:34.885Z,8.93
2022-10-19T20:36:22.925Z,8.68
2022-10-19T20:38:57.887Z,9.32
2022-10-19T20:41:27.979Z,9.52
2022-10-19T20:43:56.027Z,9.00
2022-10-19T20:46:26.094Z,9.07
2022-10-19T20:48:54.824Z,8.80
2022-10-19T20:51:30.901Z,8.45
2022-10-19T20:54:01.403Z,7.93
2022-10-19T20:56:33.007Z,8.20
2022-10-19T21:01:37.086Z,8.48
2022-10-19T21:04:05.983Z,9.45
2022-10-19T21:06:35.067Z,8.93
2022-10-19T21:09:01.995Z,8.80
2022-10-19T21:11:32.031Z,9.13
2022-10-19T21:14:05.015Z,9.23
2022-10-19T21:16:35.447Z,8.60
2022-10-19T21:19:04.755Z,8.90
2022-10-19T21:21:34.071Z,9.02
2022-10-19T21:24:10.814Z,8.50
2022-10-19T21:26:38.388Z,9.18
2022-10-19T21:29:09.403Z,9.73
2022-10-19T21:31:38.398Z,10.30
2022-10-19T21:34:07.531Z,10.05
2022-10-19T21:36:34.550Z,9.38
2022-10-19T21:39:02.295Z,9.27
2022-10-19T21:41:29.364Z,10.10
2022-10-19T21:43:56.548Z,9.15
2022-10-19T21:46:24.582Z,8.70
2022-10-19T21:48:52.195Z,9.65
2022-10-19T21:51:22.614Z,8.93
2022-10-19T21:53:50.327Z,9.25
2022-10-19T21:56:17.783Z,9.43
2022-10-19T21:58:53.474Z,8.95
2022-10-19T22:01:23.882Z,9.63
2022-10-19T22:03:58.248Z,8.85
2022-10-19T22:06:27.561Z,9.10
2022-10-19T22:08:55.391Z,9.25
2022-10-19T22:11:23.617Z,9.25
2022-10-19T22:13:54.839Z,10.05
2022-10-19T22:16:22.902Z,10.57
2022-10-19T22:18:50.384Z,10.43
2022-10-19T22:21:21.761Z,10.30
2022-10-19T22:23:53.482Z,9.77
2022-10-19T22:26:26.702Z,9.93
2022-10-19T22:28:56.587Z,10.07
2022-10-19T22:31:24.160Z,10.32
2022-10-19T22:33:51.119Z,10.95
2022-10-19T22:36:18.485Z,10.13
2022-10-19T22:38:45.794Z,11.30
2022-10-19T22:41:13.254Z,11.43
2022-10-19T22:43:40.454Z,10.65
2022-10-19T22:46:07.532Z,11.23
2022-10-19T22:48:34.587Z,11.02
2022-10-19T22:51:01.564Z,11.90
2022-10-19T22:53:28.579Z,11.90
2022-10-19T22:55:55.526Z,11.52
2022-10-19T22:58:22.544Z,10.80
2022-10-19T23:01:10.065Z,11.52
2022-10-19T23:03:39.432Z,11.50
2022-10-19T23:06:08.015Z,12.35
2022-10-19T23:08:35.313Z,11.75
2022-10-19T23:11:02.398Z,13.23
2022-10-19T23:13:29.536Z,13.75
2022-10-19T23:15:56.486Z,14.55
2022-10-19T23:18:23.487Z,13.88
2022-10-19T23:21:01.776Z,13.20
2022-10-19T23:23:30.424Z,13.55
2022-10-19T23:26:08.317Z,13.65
2022-10-19T23:28:37.147Z,14.38
2022-10-19T23:31:06.725Z,14.38
2022-10-19T23:33:34.235Z,14.55
2022-10-19T23:36:04.052Z,15.20
2022-10-19T23:38:31.036Z,15.52
2022-10-19T23:40:57.982Z,14.85
2022-10-19T23:43:25.017Z,13.30
2022-10-19T23:45:51.972Z,14.10
2022-10-19T23:48:19.116Z,13.27
2022-10-19T23:50:46.075Z,14.18
2022-10-19T23:53:13.245Z,15.15
2022-10-19T23:55:40.144Z,14.52
2022-10-19T23:58:07.244Z,14.20
